Time;durP1;ratioP1;P1;durP2;ratioP2;P2;SDS_P1;SDS_P2;PMS_P1;PMS_P2;Temp;Humidity;BMP_temperature;BMP_pressure;BME280_temperature;BME280_humidity;BME280_pressure;Samples;Min_cycle;Max_cycle;Signal;HPM_P1;HPM_P2
2022/01/23 00:00:04;;;;;;;3.97;0.75;;;7.20;98.20;;;;;;5033519;28;20120;-73
2022/01/23 00:02:32;;;;;;;2.95;0.90;;;7.30;98.10;;;;;;5033450;28;20057;-74
2022/01/23 00:05:04;;;;;;;1.52;0.60;;;7.20;97.40;;;;;;5032919;28;20116;-74
2022/01/23 00:07:31;;;;;;;4.95;1.10;;;7.20;98.20;;;;;;5014760;28;20032;-74
2022/01/23 00:09:57;;;;;;;3.53;0.90;;;7.20;97.50;;;;;;5033115;28;20106;-74
2022/01/23 00:12:26;;;;;;;2.38;0.70;;;7.20;97.50;;;;;;5033167;28;20025;-74
2022/01/23 00:17:37;;;;;;;2.08;0.75;;;7.20;97.40;;;;;;5032952;28;20560;-73
2022/01/23 00:20:07;;;;;;;3.40;0.98;;;7.20;97.30;;;;;;5032553;28;20056;-74
2022/01/23 00:22:43;;;;;;;5.93;0.80;;;7.20;97.60;;;;;;5032531;28;20025;-74
2022/01/23 00:30:42;;;;;;;1.50;0.68;;;7.00;97.90;;;;;;5032920;28;20132;-74
2022/01/23 00:33:09;;;;;;;2.67;0.95;;;7.00;97.90;;;;;;5032064;28;20100;-74
2022/01/23 00:35:37;;;;;;;1.55;0.70;;;7.00;98.30;;;;;;5032215;28;20031;-74
2022/01/23 00:38:05;;;;;;;3.90;0.73;;;7.00;98.40;;;;;;5031926;28;20067;-75
2022/01/23 00:40:34;;;;;;;3.13;0.80;;;7.00;98.40;;;;;;5032242;28;20504;-74
2022/01/23 00:43:01;;;;;;;3.00;0.90;;;7.10;98.40;;;;;;5031700;28;20025;-75
2022/01/23 00:45:41;;;;;;;3.83;0.75;;;7.00;98.00;;;;;;5032505;28;20037;-74
2022/01/23 00:48:08;;;;;;;1.15;0.60;;;7.00;98.20;;;;;;5014436;28;20025;-74
2022/01/23 00:50:39;;;;;;;;;;;7.00;97.90;;;;;;5032337;28;20116;-73
2022/01/23 00:53:10;;;;;;;2.17;0.88;;;6.80;98.30;;;;;;5031770;28;20379;-74
2022/01/23 00:55:41;;;;;;;2.25;0.80;;;6.70;98.30;;;;;;5032232;28;20109;-74
2022/01/23 00:58:08;;;;;;;2.65;0.77;;;6.70;99.00;;;;;;5032104;28;20048;-74
2022/01/23 01:00:34;;;;;;;4.30;0.70;;;6.70;98.60;;;;;;5013943;28;20045;-74
2022/01/23 01:03:01;;;;;;;2.90;0.88;;;6.60;98.40;;;;;;5031227;28;20022;-74
2022/01/23 01:05:28;;;;;;;2.55;0.80;;;6.60;98.70;;;;;;5013248;28;20033;-74
2022/01/23 01:07:56;;;;;;;2.72;0.98;;;6.60;98.70;;;;;;5031094;28;20029;-74
2022/01/23 01:10:28;;;;;;;2.03;0.85;;;6.60;98.70;;;;;;5031182;28;20052;-73
2022/01/23 01:13:00;;;;;;;2.42;0.85;;;6.50;99.00;;;;;;5029824;28;20106;-74
2022/01/23 01:31:48;;;;;;;3.65;0.80;;;6.70;98.70;;;;;;5031402;28;20029;-74
2022/01/23 01:34:24;;;;;;;2.60;0.88;;;6.70;98.50;;;;;;5030717;28;20346;-74
2022/01/23 01:36:53;;;;;;;3.00;0.80;;;6.70;98.60;;;;;;5031317;28;20108;-74
2022/01/23 01:39:24;;;;;;;2.85;0.80;;;6.70;98.80;;;;;;5030661;28;20056;-74
2022/01/23 01:41:51;;;;;;;1.88;0.80;;;6.70;98.60;;;;;;5030973;28;20053;-74
2022/01/23 01:44:18;;;;;;;2.28;0.70;;;6.70;99.00;;;;;;5031037;28;20327;-74
2022/01/23 01:46:44;;;;;;;;;;;6.80;98.50;;;;;;5031520;28;20024;-74
2022/01/23 01:49:11;;;;;;;1.57;0.70;;;6.90;98.50;;;;;;5030734;28;19906;-74
2022/01/23 01:51:38;;;;;;;2.60;0.77;;;6.90;99.00;;;;;;5030603;28;20029;-74
2022/01/23 01:54:16;;;;;;;2.25;0.77;;;6.90;98.80;;;;;;5030589;28;20091;-74
2022/01/23 01:56:50;;;;;;;3.28;0.90;;;6.90;98.80;;;;;;5030739;28;20400;-73
2022/01/23 02:09:41;;;;;;;2.17;0.60;;;6.90;98.80;;;;;;5030663;28;20040;-74
2022/01/23 02:18:12;;;;;;;2.67;0.73;;;6.90;99.40;;;;;;4993911;28;20034;-74
2022/01/23 02:52:11;;;;;;;3.13;0.98;;;6.70;99.90;;;;;;5033970;28;20072;-74
2022/01/23 02:54:52;;;;;;;4.35;0.80;;;6.70;99.90;;;;;;5034097;28;20029;-75
2022/01/23 02:57:31;;;;;;;4.35;0.90;;;6.70;99.90;;;;;;5033991;28;20473;-74
2022/01/23 02:59:58;;;;;;;4.60;0.80;;;6.80;99.90;;;;;;5034088;28;20111;-74
2022/01/23 03:02:37;;;;;;;3.33;0.83;;;6.70;99.90;;;;;;5015701;28;20064;-75
2022/01/23 03:05:05;;;;;;;4.38;0.82;;;6.70;99.90;;;;;;5033983;28;20040;-73
2022/01/23 03:24:11;;;;;;;1.40;0.50;;;6.50;99.90;;;;;;4953092;29;20122;-73
2022/01/23 03:26:52;;;;;;;2.83;0.60;;;6.30;99.90;;;;;;4952859;29;20043;-73
2022/01/23 03:29:24;;;;;;;1.98;0.70;;;6.30;99.90;;;;;;4952691;29;20031;-74
2022/01/23 03:34:17;;;;;;;1.83;0.70;;;6.40;99.90;;;;;;4952689;29;20106;-73
2022/01/23 03:36:44;;;;;;;4.43;1.77;;;6.40;99.90;;;;;;4952572;29;20031;-70
2022/01/23 03:39:11;;;;;;;3.42;0.85;;;6.40;99.90;;;;;;4952785;29;20070;-74
2022/01/23 03:41:39;;;;;;;1.83;0.77;;;6.30;99.90;;;;;;4952372;28;20038;-73
2022/01/23 03:44:08;;;;;;;2.70;0.70;;;6.40;99.90;;;;;;4978481;28;20045;-73
2022/01/23 03:46:48;;;;;;;3.33;0.77;;;6.50;99.90;;;;;;5033035;28;20525;-73
2022/01/23 03:49:32;;;;;;;3.28;0.70;;;6.50;99.90;;;;;;5033123;28;20085;-74
2022/01/23 03:52:08;;;;;;;3.50;0.60;;;6.60;99.90;;;;;;5014633;28;20098;-74
2022/01/23 03:54:36;;;;;;;4.78;0.73;;;6.60;99.90;;;;;;5032785;28;20033;-73
2022/01/23 03:57:04;;;;;;;1.98;0.80;;;6.70;99.90;;;;;;5032706;28;20458;-73
2022/01/23 03:59:31;;;;;;;2.92;0.88;;;6.70;99.90;;;;;;5014362;28;20424;-73
2022/01/23 04:01:58;;;;;;;1.35;0.55;;;6.70;99.90;;;;;;5032322;28;20025;-74
2022/01/23 04:04:40;;;;;;;3.28;0.55;;;6.80;99.90;;;;;;5032645;28;20170;-74
2022/01/23 04:07:19;;;;;;;1.55;0.50;;;6.80;99.90;;;;;;5032673;28;20048;-74
2022/01/23 04:09:46;;;;;;;3.92;0.90;;;6.80;99.90;;;;;;5032157;28;20101;-73
2022/01/23 04:12:27;;;;;;;;;;;6.80;99.90;;;;;;5033029;28;20074;-74
2022/01/23 04:15:04;;;;;;;2.92;0.70;;;6.80;99.90;;;;;;5031953;28;19909;-74
2022/01/23 05:00:22;;;;;;;3.22;0.60;;;6.80;99.90;;;;;;5031668;28;20531;-74
2022/01/23 05:05:15;;;;;;;1.35;0.68;;;6.80;99.90;;;;;;5031515;28;20060;-74
2022/01/23 05:07:45;;;;;;;1.45;0.75;;;6.90;99.90;;;;;;5031669;28;20087;-74
2022/01/23 05:10:12;;;;;;;3.83;0.80;;;7.00;99.90;;;;;;5031652;28;20029;-74
2022/01/23 05:12:39;;;;;;;2.77;0.70;;;7.00;99.90;;;;;;5031419;28;20389;-74
2022/01/23 05:15:07;;;;;;;4.07;0.90;;;7.00;99.90;;;;;;5031223;28;20272;-74
2022/01/23 05:17:34;;;;;;;2.50;0.80;;;7.00;99.90;;;;;;5031432;28;20022;-73
2022/01/23 05:20:00;;;;;;;1.98;0.80;;;7.00;99.90;;;;;;5030790;28;20067;-72
2022/01/23 05:22:37;;;;;;;2.88;0.82;;;7.00;99.90;;;;;;5012834;28;20120;-73
2022/01/23 05:25:19;;;;;;;5.63;1.05;;;7.00;99.90;;;;;;5030790;28;20073;-73
2022/01/23 05:27:46;;;;;;;2.08;0.70;;;7.00;99.90;;;;;;5013451;28;20022;-73
2022/01/23 05:30:12;;;;;;;;;;;6.90;99.90;;;;;;5029791;28;20033;-73
2022/01/23 05:32:41;;;;;;;2.20;0.82;;;6.90;99.90;;;;;;5030891;28;19909;-73
2022/01/23 05:35:09;;;;;;;2.60;0.77;;;7.00;99.90;;;;;;5030776;28;20033;-73
2022/01/23 05:37:39;;;;;;;2.72;0.73;;;7.00;99.90;;;;;;5030621;28;20029;-73
2022/01/23 05:40:07;;;;;;;3.25;0.85;;;7.00;99.90;;;;;;5030841;28;20029;-74
2022/01/23 05:42:33;;;;;;;2.40;0.80;;;7.00;99.90;;;;;;5030604;28;20159;-72
2022/01/23 05:44:59;;;;;;;1.10;0.60;;;7.00;99.90;;;;;;5030553;28;20501;-73
2022/01/23 05:47:25;;;;;;;3.35;0.73;;;7.00;99.90;;;;;;5030756;28;20022;-74
2022/01/23 05:49:51;;;;;;;2.20;0.77;;;7.10;99.90;;;;;;5031250;28;20026;-74
2022/01/23 05:52:17;;;;;;;2.28;0.70;;;7.10;99.90;;;;;;5031256;28;20128;-74
2022/01/23 05:54:43;;;;;;;1.63;0.70;;;7.10;99.90;;;;;;5030986;28;20108;-73
2022/01/23 05:57:09;;;;;;;3.60;0.90;;;7.00;99.90;;;;;;5030649;28;20113;-73
2022/01/23 05:59:35;;;;;;;2.08;0.80;;;7.10;99.90;;;;;;5030877;28;20033;-73
2022/01/23 06:02:01;;;;;;;2.92;0.98;;;7.10;99.90;;;;;;5030860;28;20022;-73
2022/01/23 06:04:28;;;;;;;4.68;0.80;;;7.10;99.90;;;;;;5030959;28;20026;-73
2022/01/23 06:06:56;;;;;;;2.17;0.75;;;7.10;99.90;;;;;;5034436;28;20102;-73
2022/01/23 06:09:23;;;;;;;2.85;0.88;;;7.10;99.90;;;;;;5034860;28;20033;-73
2022/01/23 06:11:50;;;;;;;6.47;0.95;;;7.10;99.90;;;;;;5016523;28;20045;-74
2022/01/23 06:14:17;;;;;;;3.88;0.70;;;7.20;99.90;;;;;;5034399;28;20112;-74
2022/01/23 06:16:43;;;;;;;4.03;0.85;;;7.20;99.90;;;;;;5034495;28;20075;-74
2022/01/23 06:19:09;;;;;;;1.83;0.70;;;7.20;99.90;;;;;;5016489;28;20045;-74
2022/01/23 06:21:35;;;;;;;2.22;1.10;;;7.20;99.90;;;;;;5034080;28;20224;-72
2022/01/23 06:24:06;;;;;;;2.67;0.70;;;7.30;99.90;;;;;;5034673;28;20029;-73
2022/01/23 06:26:45;;;;;;;3.95;1.10;;;7.20;99.90;;;;;;5034999;28;20450;-73
2022/01/23 06:29:12;;;;;;;1.35;0.80;;;7.30;99.90;;;;;;5034539;28;20096;-73
2022/01/23 06:31:40;;;;;;;2.50;1.00;;;7.30;99.90;;;;;;5034168;28;20029;-75
2022/01/23 06:34:07;;;;;;;2.15;0.75;;;7.40;99.90;;;;;;5034148;28;20067;-73
2022/01/23 06:36:37;;;;;;;3.83;1.00;;;7.90;99.30;;;;;;5016286;28;20040;-75
2022/01/23 06:39:05;;;;;;;3.67;1.27;;;8.50;98.60;;;;;;5033893;28;20532;-74
2022/01/23 06:41:32;;;;;;;4.10;1.63;;;9.10;97.70;;;;;;5033873;28;20029;-74
2022/01/23 06:43:58;;;;;;;7.35;1.92;;;9.40;97.30;;;;;;5033958;28;20036;-75
2022/01/23 06:46:25;;;;;;;5.90;1.93;;;9.70;97.00;;;;;;5015572;28;20039;-74
2022/01/23 06:48:51;;;;;;;6.00;2.05;;;10.00;96.60;;;;;;5033396;28;20437;-74
2022/01/23 06:51:18;;;;;;;7.10;1.90;;;10.60;96.10;;;;;;5033471;28;20025;-75
2022/01/23 06:53:44;;;;;;;2.90;0.95;;;11.00;95.00;;;;;;5033281;28;20264;-75
2022/01/23 06:56:10;;;;;;;3.70;0.90;;;11.40;94.50;;;;;;5033510;28;20029;-75
2022/01/23 06:58:37;;;;;;;3.47;0.90;;;11.70;94.00;;;;;;5033672;28;20049;-75
2022/01/23 07:01:07;;;;;;;141.25;9.30;;;12.10;93.40;;;;;;5015661;28;20398;-75
2022/01/23 07:03:34;;;;;;;2.03;0.88;;;12.70;92.60;;;;;;5015367;28;20029;-74
2022/01/23 07:06:00;;;;;;;7.20;1.10;;;12.40;92.00;;;;;;5015716;28;20355;-75
2022/01/23 07:08:26;;;;;;;3.17;1.00;;;12.50;92.20;;;;;;5033731;28;20068;-75
2022/01/23 07:10:53;;;;;;;1.83;0.80;;;12.70;92.10;;;;;;5033603;28;20026;-75
2022/01/23 07:13:19;;;;;;;2.95;1.00;;;13.30;91.60;;;;;;5033924;28;20052;-75
2022/01/23 07:15:46;;;;;;;2.37;0.80;;;13.60;90.30;;;;;;5033815;28;20100;-75
2022/01/23 07:18:12;;;;;;;2.88;0.90;;;13.80;89.90;;;;;;5032911;28;20032;-74
2022/01/23 07:20:38;;;;;;;3.53;1.00;;;14.20;87.50;;;;;;5033458;28;20045;-74
2022/01/23 07:23:04;;;;;;;2.78;0.80;;;13.90;87.80;;;;;;5033428;28;20152;-74
2022/01/23 07:25:30;;;;;;;3.23;0.80;;;14.00;88.20;;;;;;5033435;28;20053;-74
2022/01/23 07:27:58;;;;;;;2.07;1.00;;;14.50;86.50;;;;;;5033687;28;20594;-73
2022/01/23 07:32:51;;;;;;;2.63;1.00;;;15.70;83.60;;;;;;5033544;28;20040;-77
2022/01/23 07:35:17;;;;;;;3.60;0.93;;;15.80;84.40;;;;;;5015214;28;20029;-74
2022/01/23 07:37:43;;;;;;;3.13;0.80;;;14.80;85.80;;;;;;5015140;28;20540;-73
2022/01/23 07:40:09;;;;;;;1.67;0.80;;;15.50;85.20;;;;;;5015042;28;20794;-73
2022/01/23 07:42:36;;;;;;;4.03;0.90;;;16.10;83.80;;;;;;5033316;28;20132;-74
2022/01/23 07:45:03;;;;;;;2.37;0.90;;;16.40;83.30;;;;;;5032919;28;20087;-73
2022/01/23 07:47:29;;;;;;;2.92;1.00;;;17.10;79.20;;;;;;5033218;28;20296;-75
2022/01/23 07:49:55;;;;;;;4.43;1.10;;;18.00;80.00;;;;;;5033209;28;20032;-70
2022/01/23 07:52:21;;;;;;;2.88;1.13;;;18.40;77.60;;;;;;5033283;28;20108;-70
2022/01/23 07:54:48;;;;;;;4.57;1.55;;;17.50;77.10;;;;;;5015081;28;20049;-71
2022/01/23 07:57:14;;;;;;;2.03;1.00;;;16.70;81.70;;;;;;5033116;28;20030;-71
2022/01/23 07:59:40;;;;;;;4.13;1.08;;;15.80;80.90;;;;;;5033869;28;20087;-70
2022/01/23 08:02:06;;;;;;;5.70;1.20;;;14.10;85.00;;;;;;5032957;28;20120;-70
2022/01/23 08:04:32;;;;;;;2.83;0.87;;;13.00;90.90;;;;;;5033126;28;20025;-70
2022/01/23 08:07:20;;;;;;;4.90;1.30;;;12.10;90.30;;;;;;5032654;28;20474;-70
2022/01/23 08:09:46;;;;;;;3.28;1.40;;;11.60;91.00;;;;;;5032059;28;20033;-70
2022/01/23 08:12:12;;;;;;;7.40;1.67;;;11.40;95.20;;;;;;5031495;28;20450;-70
2022/01/23 08:14:38;;;;;;;6.17;1.47;;;11.10;92.40;;;;;;5048966;28;20040;-74
2022/01/23 08:17:04;;;;;;;2.27;0.90;;;11.00;92.00;;;;;;5052161;28;20048;-72
2022/01/23 08:19:30;;;;;;;2.90;1.08;;;11.00;91.80;;;;;;5052400;28;20332;-72
2022/01/23 08:21:56;;;;;;;3.53;1.60;;;11.10;91.90;;;;;;5034424;28;20358;-73
2022/01/23 08:24:23;;;;;;;2.87;1.30;;;11.20;91.90;;;;;;5052261;28;20033;-73
2022/01/23 08:26:49;;;;;;;4.72;1.40;;;11.40;92.00;;;;;;5052226;28;20124;-73
2022/01/23 08:29:15;;;;;;;5.53;1.43;;;11.70;91.90;;;;;;5051936;28;20029;-73
2022/01/23 08:31:43;;;;;;;3.67;1.20;;;12.00;91.60;;;;;;5017739;28;20071;-74
2022/01/23 08:34:09;;;;;;;3.78;1.35;;;12.30;91.70;;;;;;5052059;28;20036;-74
2022/01/23 08:36:36;;;;;;;4.53;1.23;;;12.40;92.10;;;;;;5052207;28;20112;-74
2022/01/23 08:39:03;;;;;;;5.90;1.83;;;12.50;91.60;;;;;;5051904;28;20025;-74
2022/01/23 08:44:14;;;;;;;3.92;1.30;;;12.60;91.60;;;;;;5052053;28;20052;-75
2022/01/23 08:46:41;;;;;;;3.70;1.08;;;12.80;91.80;;;;;;5051902;28;20095;-75
2022/01/23 08:49:07;;;;;;;3.05;1.00;;;12.90;91.30;;;;;;5033890;28;20041;-74
2022/01/23 08:51:34;;;;;;;3.25;0.80;;;12.80;91.20;;;;;;5052038;28;20033;-73
2022/01/23 08:54:02;;;;;;;4.10;1.20;;;13.00;91.10;;;;;;5051813;28;20025;-76
2022/01/23 08:56:29;;;;;;;3.90;1.05;;;13.20;91.50;;;;;;5051716;28;20420;-74
2022/01/23 08:58:55;;;;;;;2.53;1.00;;;13.30;91.60;;;;;;5051705;28;20139;-74
2022/01/23 09:01:23;;;;;;;3.95;1.20;;;13.50;91.00;;;;;;5051512;28;20057;-74
2022/01/23 09:03:50;;;;;;;3.75;1.30;;;13.80;90.90;;;;;;5051561;28;20057;-73
2022/01/23 09:06:16;;;;;;;3.13;1.10;;;14.00;90.50;;;;;;5051141;28;20052;-73
2022/01/23 09:08:42;;;;;;;5.60;2.47;;;14.10;90.70;;;;;;5051539;28;20036;-73
2022/01/23 09:11:24;;;;;;;3.30;1.03;;;13.80;90.70;;;;;;5050902;28;20051;-73
2022/01/23 09:14:04;;;;;;;3.67;0.90;;;13.90;90.50;;;;;;5050174;28;20029;-73
2022/01/23 09:16:31;;;;;;;3.55;0.80;;;14.20;90.40;;;;;;5050886;28;20067;-73
2022/01/23 09:18:57;;;;;;;4.18;1.08;;;14.00;89.80;;;;;;5049932;28;20486;-75
2022/01/23 09:21:23;;;;;;;3.83;1.13;;;13.70;90.20;;;;;;5051013;28;20041;-72
2022/01/23 09:23:49;;;;;;;2.43;1.00;;;13.50;90.70;;;;;;5051589;28;20033;-73
2022/01/23 09:26:18;;;;;;;6.77;1.60;;;13.60;90.80;;;;;;5051602;28;20028;-73
2022/01/23 09:28:46;;;;;;;3.00;1.00;;;13.40;91.30;;;;;;5051509;28;20060;-72
2022/01/23 09:31:15;;;;;;;2.63;1.00;;;13.60;91.00;;;;;;5051639;28;20034;-73
2022/01/23 09:33:41;;;;;;;2.20;0.90;;;13.90;91.00;;;;;;5052363;28;20028;-72
2022/01/23 09:36:08;;;;;;;2.83;1.03;;;13.90;90.70;;;;;;5052064;28;20025;-72
2022/01/23 09:38:34;;;;;;;4.53;1.67;;;13.90;90.90;;;;;;5052549;28;20028;-72
2022/01/23 09:41:02;;;;;;;2.87;1.10;;;13.70;92.00;;;;;;5051356;28;20094;-74
2022/01/23 09:43:31;;;;;;;3.00;1.13;;;13.80;91.30;;;;;;5034930;28;20283;-74
2022/01/23 09:45:57;;;;;;;6.50;1.48;;;13.80;91.40;;;;;;5052606;28;20369;-74
2022/01/23 09:48:23;;;;;;;3.75;1.00;;;13.50;91.60;;;;;;5034144;28;20498;-74
2022/01/23 09:50:53;;;;;;;5.43;1.52;;;13.70;91.60;;;;;;5051911;28;20029;-74
2022/01/23 09:53:22;;;;;;;4.32;1.17;;;13.80;91.60;;;;;;5052129;28;20031;-73
2022/01/23 09:55:53;;;;;;;3.38;1.15;;;13.70;92.00;;;;;;5051803;28;20029;-74
2022/01/23 09:58:19;;;;;;;2.75;1.02;;;14.00;91.90;;;;;;5033888;28;20025;-74
2022/01/23 10:00:46;;;;;;;3.08;0.90;;;14.20;91.70;;;;;;5052189;28;20028;-74
2022/01/23 10:03:12;;;;;;;4.53;1.52;;;14.40;91.10;;;;;;5051884;28;20354;-73
2022/01/23 10:05:38;;;;;;;4.53;1.20;;;14.10;91.50;;;;;;5034210;28;20032;-74
2022/01/23 10:08:07;;;;;;;3.05;1.08;;;14.20;92.10;;;;;;5052041;28;20033;-74
2022/01/23 10:10:38;;;;;;;3.25;1.30;;;14.30;91.60;;;;;;5033723;28;20071;-74
2022/01/23 10:13:04;;;;;;;2.97;1.13;;;14.30;92.10;;;;;;5052190;28;20025;-75
2022/01/23 10:15:32;;;;;;;2.77;0.90;;;14.40;91.50;;;;;;5051665;28;20504;-74
2022/01/23 10:17:59;;;;;;;6.82;1.10;;;14.20;91.80;;;;;;5033234;28;20075;-74
2022/01/23 10:20:25;;;;;;;;;;;14.30;92.00;;;;;;5051981;28;20084;-74
2022/01/23 10:22:54;;;;;;;2.92;1.05;;;14.40;91.40;;;;;;5033610;28;19912;-74
2022/01/23 10:25:26;;;;;;;3.30;0.98;;;14.30;91.10;;;;;;5051194;28;20032;-74
2022/01/23 10:28:06;;;;;;;3.33;1.10;;;14.20;90.80;;;;;;5051156;28;20018;-73
2022/01/23 10:30:34;;;;;;;3.55;1.20;;;14.20;90.60;;;;;;5050681;28;20500;-74
2022/01/23 10:33:08;;;;;;;3.40;1.10;;;14.00;90.80;;;;;;5051061;28;20025;-73
2022/01/23 10:35:51;;;;;;;3.42;1.20;;;14.00;90.90;;;;;;5051335;28;20047;-75
2022/01/23 10:38:18;;;;;;;3.30;1.30;;;14.10;90.20;;;;;;5031772;28;20040;-74
2022/01/23 10:40:50;;;;;;;2.33;0.70;;;14.10;90.80;;;;;;5033101;28;20098;-73
2022/01/23 10:48:45;;;;;;;3.35;1.00;;;14.00;89.20;;;;;;5050796;28;20079;-74
2022/01/23 10:51:16;;;;;;;1.80;0.85;;;13.90;88.10;;;;;;5032862;28;20135;-73
2022/01/23 10:54:01;;;;;;;5.13;0.98;;;14.10;87.50;;;;;;5054124;28;20114;-73
2022/01/23 10:56:31;;;;;;;3.73;1.17;;;14.40;86.90;;;;;;5054372;28;20122;-73
2022/01/23 10:59:09;;;;;;;3.90;1.25;;;14.60;87.20;;;;;;5054761;28;20037;-73
2022/01/23 11:01:36;;;;;;;3.78;1.00;;;14.90;86.70;;;;;;5054920;28;20021;-74
2022/01/23 11:04:09;;;;;;;5.70;0.90;;;14.80;84.80;;;;;;5054833;28;20066;-73
2022/01/23 11:07:01;;;;;;;4.57;1.20;;;14.60;85.30;;;;;;5036769;28;20431;-73
2022/01/23 11:09:36;;;;;;;2.30;0.90;;;14.40;86.10;;;;;;5054901;28;20082;-73
2022/01/23 11:12:28;;;;;;;3.80;1.08;;;14.60;85.00;;;;;;5054668;28;20025;-74
2022/01/23 11:17:54;;;;;;;3.10;1.20;;;14.80;86.80;;;;;;5054461;28;20060;-72
2022/01/23 11:20:43;;;;;;;2.70;0.82;;;14.80;85.20;;;;;;5054165;28;20064;-73
2022/01/23 11:23:22;;;;;;;2.38;1.00;;;14.70;84.50;;;;;;5054223;28;20036;-72
2022/01/23 11:25:57;;;;;;;3.17;1.00;;;14.50;84.60;;;;;;5054915;28;20097;-72
2022/01/23 11:28:39;;;;;;;2.22;0.95;;;14.50;83.50;;;;;;5054017;28;20021;-72
2022/01/23 11:31:09;;;;;;;3.35;1.00;;;14.40;83.80;;;;;;5054271;28;20045;-73
2022/01/23 11:33:35;;;;;;;2.22;1.00;;;14.30;84.30;;;;;;5035788;28;20032;-72
2022/01/23 11:36:02;;;;;;;3.63;0.90;;;14.50;84.50;;;;;;5054051;28;20028;-73
2022/01/23 11:38:29;;;;;;;5.78;1.00;;;14.40;84.00;;;;;;5054471;28;20323;-73
2022/01/23 11:54:48;;;;;;;3.63;1.10;;;13.60;88.00;;;;;;5053598;28;20032;-73
2022/01/23 11:57:35;;;;;;;3.65;1.10;;;14.00;88.40;;;;;;5053697;28;20025;-71
2022/01/23 12:00:10;;;;;;;3.55;1.17;;;14.30;88.10;;;;;;5035522;28;20401;-73
2022/01/23 12:02:40;;;;;;;2.53;1.00;;;14.30;87.10;;;;;;5035162;28;20051;-72
2022/01/23 12:07:40;;;;;;;2.88;1.00;;;14.60;86.40;;;;;;5053504;28;20175;-73
2022/01/23 12:10:32;;;;;;;4.93;1.70;;;14.50;87.10;;;;;;5053452;28;20481;-72
2022/01/23 12:18:49;;;;;;;3.40;1.20;;;14.90;91.00;;;;;;5053488;28;20068;-71
2022/01/23 12:21:29;;;;;;;2.60;1.20;;;14.90;86.80;;;;;;5052952;28;20475;-71
2022/01/23 12:24:05;;;;;;;2.60;1.13;;;15.00;87.00;;;;;;5053118;28;20112;-71
2022/01/23 12:26:32;;;;;;;2.78;1.20;;;15.00;83.90;;;;;;5053339;28;20021;-71
2022/01/23 12:29:11;;;;;;;2.33;1.13;;;14.70;83.10;;;;;;5053465;28;20428;-70
2022/01/23 12:31:38;;;;;;;2.83;1.15;;;14.50;84.00;;;;;;5053353;28;20357;-72
2022/01/23 12:34:05;;;;;;;3.58;1.10;;;14.40;82.40;;;;;;5053425;28;20087;-72
2022/01/23 12:36:34;;;;;;;3.13;1.10;;;14.40;82.20;;;;;;5053063;28;20528;-73
2022/01/23 12:39:10;;;;;;;5.72;1.30;;;14.20;82.40;;;;;;5034914;28;20029;-72
2022/01/23 12:41:51;;;;;;;2.45;1.10;;;14.00;82.10;;;;;;5053295;28;20029;-72
2022/01/23 12:44:23;;;;;;;3.30;0.90;;;13.90;82.70;;;;;;5034799;28;20365;-72
2022/01/23 12:46:52;;;;;;;3.00;1.08;;;13.90;82.10;;;;;;5052756;28;20025;-72
2022/01/23 12:49:20;;;;;;;2.20;1.00;;;13.90;82.10;;;;;;5052306;28;20025;-69
2022/01/23 12:51:48;;;;;;;2.72;1.00;;;14.00;83.50;;;;;;5034326;28;20033;-68
2022/01/23 12:54:21;;;;;;;4.45;1.20;;;13.90;82.00;;;;;;5052430;28;20031;-73
2022/01/23 12:56:49;;;;;;;4.20;1.10;;;13.90;80.80;;;;;;5052725;28;20112;-71
2022/01/23 12:59:28;;;;;;;4.00;1.10;;;14.00;81.20;;;;;;5052468;28;20029;-73
2022/01/23 13:02:00;;;;;;;4.80;1.20;;;13.90;81.80;;;;;;5052981;28;20027;-74
2022/01/23 13:04:32;;;;;;;5.85;1.33;;;13.90;78.20;;;;;;5052398;28;20025;-74
2022/01/23 13:07:06;;;;;;;3.28;1.13;;;13.70;79.80;;;;;;5052410;28;20021;-74
2022/01/23 13:18:00;;;;;;;4.22;1.10;;;13.90;80.70;;;;;;4991076;28;20117;-73
2022/01/23 13:31:52;;;;;;;5.25;1.23;;;14.30;78.90;;;;;;4990438;28;20101;-73
2022/01/23 13:34:27;;;;;;;3.78;1.20;;;14.30;79.50;;;;;;4990803;28;20045;-74
2022/01/23 13:37:06;;;;;;;4.75;1.10;;;14.10;79.30;;;;;;4990382;28;20022;-75
2022/01/23 13:39:47;;;;;;;3.60;0.85;;;14.00;79.60;;;;;;4990734;28;20042;-74
2022/01/23 13:48:24;;;;;;;4.22;1.23;;;13.80;81.30;;;;;;4990683;28;20123;-73
2022/01/23 14:02:06;;;;;;;4.95;1.10;;;13.60;80.80;;;;;;5051593;28;20131;-74
2022/01/23 14:04:41;;;;;;;3.92;0.80;;;13.70;81.20;;;;;;5051665;28;20029;-74
2022/01/23 14:07:07;;;;;;;3.55;1.05;;;13.60;81.10;;;;;;5052255;28;20032;-74
2022/01/23 14:09:43;;;;;;;6.03;1.30;;;13.50;81.70;;;;;;5051627;28;20175;-74
2022/01/23 14:12:12;;;;;;;4.32;1.30;;;13.40;83.00;;;;;;5051669;28;20381;-73
2022/01/23 14:15:13;;;;;;;2.22;1.00;;;13.40;82.60;;;;;;5052021;28;20478;-73
2022/01/23 14:17:40;;;;;;;4.30;1.20;;;13.70;82.30;;;;;;5037571;28;20144;-73
2022/01/23 14:20:16;;;;;;;3.40;1.20;;;13.70;83.40;;;;;;5033525;28;20049;-73
2022/01/23 14:22:44;;;;;;;2.17;0.90;;;13.70;82.20;;;;;;5051769;28;20104;-73
2022/01/23 14:25:17;;;;;;;2.92;1.02;;;13.80;81.40;;;;;;5051395;28;20623;-73
2022/01/23 14:27:47;;;;;;;2.88;1.00;;;13.60;79.10;;;;;;5055457;28;20032;-73
2022/01/23 14:30:20;;;;;;;2.78;0.90;;;13.60;79.60;;;;;;5056020;28;20032;-72
2022/01/23 14:32:52;;;;;;;2.83;0.90;;;13.70;80.00;;;;;;5055881;28;20040;-71
2022/01/23 14:35:25;;;;;;;3.85;0.88;;;13.90;79.80;;;;;;5055429;28;20029;-72
2022/01/23 14:37:52;;;;;;;3.63;1.10;;;14.00;80.60;;;;;;5056075;28;20385;-73
2022/01/23 14:40:18;;;;;;;4.32;1.17;;;13.70;80.00;;;;;;5037615;28;20037;-73
2022/01/23 14:43:02;;;;;;;3.75;1.00;;;13.60;81.30;;;;;;5056126;28;20032;-72
2022/01/23 14:45:31;;;;;;;4.82;2.30;;;13.40;82.60;;;;;;5055506;28;20083;-73
2022/01/23 14:47:57;;;;;;;3.63;1.10;;;13.40;83.00;;;;;;5055349;28;20024;-73
2022/01/23 14:50:25;;;;;;;4.87;0.90;;;13.30;83.80;;;;;;5055335;28;20083;-73
2022/01/23 14:52:52;;;;;;;2.47;0.90;;;13.20;83.80;;;;;;5054929;28;20471;-72
2022/01/23 14:55:20;;;;;;;2.08;1.00;;;13.10;85.40;;;;;;5055636;28;20112;-71
2022/01/23 14:57:47;;;;;;;3.88;1.10;;;12.90;85.40;;;;;;5054885;28;20025;-71
2022/01/23 15:00:15;;;;;;;2.53;0.90;;;12.80;85.60;;;;;;5054731;28;20043;-72
2022/01/23 15:02:42;;;;;;;2.60;1.00;;;12.80;87.30;;;;;;5054964;28;20028;-72
2022/01/23 15:05:09;;;;;;;2.55;0.93;;;12.70;86.90;;;;;;5054612;28;20028;-72
2022/01/23 15:07:41;;;;;;;3.80;1.00;;;12.80;84.90;;;;;;5054723;28;20024;-73
2022/01/23 15:10:09;;;;;;;16.52;1.35;;;12.70;83.50;;;;;;5054498;28;20445;-73
2022/01/23 15:12:36;;;;;;;3.08;0.88;;;12.30;84.00;;;;;;5054700;28;20048;-73
2022/01/23 15:15:04;;;;;;;3.33;0.77;;;11.90;85.20;;;;;;5054523;28;20040;-74
2022/01/23 15:17:30;;;;;;;1.88;0.68;;;11.90;83.90;;;;;;5054970;28;20024;-74
2022/01/23 15:19:56;;;;;;;2.72;0.85;;;11.60;83.70;;;;;;5054362;28;20053;-73
2022/01/23 15:22:23;;;;;;;3.00;1.50;;;11.50;83.90;;;;;;5054516;28;20382;-73
2022/01/23 15:24:50;;;;;;;1.40;0.70;;;11.50;84.40;;;;;;5054365;28;20029;-72
2022/01/23 15:27:16;;;;;;;2.60;1.13;;;11.50;83.80;;;;;;5054880;28;20035;-73
2022/01/23 15:29:43;;;;;;;3.53;1.20;;;11.60;82.90;;;;;;5036467;28;20070;-74
2022/01/23 15:32:10;;;;;;;2.13;0.88;;;11.60;84.00;;;;;;5054501;28;20025;-73
2022/01/23 15:34:36;;;;;;;2.78;1.10;;;11.70;82.80;;;;;;5054778;28;20029;-71
2022/01/23 15:37:04;;;;;;;3.30;0.93;;;11.80;83.90;;;;;;5054120;28;20032;-73
2022/01/23 15:39:31;;;;;;;1.55;0.90;;;11.80;82.30;;;;;;5053269;28;20064;-74
2022/01/23 15:41:58;;;;;;;3.45;1.50;;;11.70;82.30;;;;;;5054053;28;20517;-73
2022/01/23 15:44:24;;;;;;;5.55;1.52;;;11.70;82.70;;;;;;5053821;28;20021;-73
2022/01/23 15:46:50;;;;;;;4.70;1.05;;;11.80;84.70;;;;;;5054033;28;20029;-73
2022/01/23 15:49:17;;;;;;;3.97;1.00;;;11.80;83.90;;;;;;5053926;28;20032;-74
2022/01/23 15:51:47;;;;;;;3.25;1.10;;;11.90;83.60;;;;;;5053906;28;20021;-73
2022/01/23 15:54:16;;;;;;;5.13;0.95;;;11.90;83.10;;;;;;5053620;28;20037;-74
2022/01/23 15:56:42;;;;;;;4.35;0.90;;;11.70;84.20;;;;;;5054151;28;20021;-72
2022/01/23 15:59:08;;;;;;;2.03;0.70;;;11.60;84.30;;;;;;5053660;28;20087;-72
2022/01/23 16:01:35;;;;;;;2.00;0.90;;;11.50;85.10;;;;;;5053380;28;20411;-71
2022/01/23 16:04:01;;;;;;;2.55;0.90;;;11.50;85.80;;;;;;5053233;28;20488;-71
2022/01/23 16:06:28;;;;;;;4.63;1.13;;;11.30;86.60;;;;;;5053391;28;20033;-72
2022/01/23 16:08:54;;;;;;;4.25;1.10;;;11.30;86.90;;;;;;5052931;28;20092;-69
2022/01/23 16:11:20;;;;;;;2.57;1.10;;;11.20;87.60;;;;;;5034965;28;20025;-71
2022/01/23 16:13:46;;;;;;;2.03;0.87;;;10.90;88.40;;;;;;5052862;28;20047;-72
2022/01/23 16:16:12;;;;;;;3.38;0.80;;;10.80;89.10;;;;;;5053123;28;20112;-74
2022/01/23 16:18:39;;;;;;;1.10;0.70;;;10.70;89.90;;;;;;5035516;28;20044;-72
2022/01/23 16:21:07;;;;;;;3.42;0.80;;;10.50;90.20;;;;;;5053478;28;20107;-71
2022/01/23 16:23:34;;;;;;;4.28;1.10;;;10.40;90.60;;;;;;5053397;28;20029;-72
2022/01/23 16:26:00;;;;;;;3.05;0.90;;;10.30;90.90;;;;;;5053335;28;20028;-71
2022/01/23 16:28:26;;;;;;;1.98;0.98;;;10.20;90.90;;;;;;5053726;28;20376;-72
2022/01/23 16:30:56;;;;;;;2.47;0.97;;;10.20;91.20;;;;;;5053393;28;20031;-72